sensor_id;sensor_type;location;lat;lon;timestamp;pressure;altitude;pressure_sealevel;temperature;humidity
39301;BME280;25019;42.626;23.380;2023-02-17T00:00:25;95269.75;;;0.25;72.32
39301;BME280;25019;42.626;23.380;2023-02-17T00:02:57;95367.13;;;0.77;72.55
39301;BME280;25019;42.626;23.380;2023-02-17T00:05:24;95340.81;;;0.70;72.64
39301;BME280;25019;42.626;23.380;2023-02-17T00:07:50;95313.06;;;0.53;73.01
39301;BME280;25019;42.626;23.380;2023-02-17T00:10:16;95353.41;;;0.75;73.41
39301;BME280;25019;42.626;23.380;2023-02-17T00:12:41;95351.94;;;0.72;72.86
39301;BME280;25019;42.626;23.380;2023-02-17T00:15:08;95354.72;;;0.71;73.45
39301;BME280;25019;42.626;23.380;2023-02-17T00:17:33;95355.88;;;0.68;74.10
39301;BME280;25019;42.626;23.380;2023-02-17T00:19:59;95338.84;;;0.56;73.97
39301;BME280;25019;42.626;23.380;2023-02-17T00:22:24;95350.16;;;0.65;73.41
39301;BME280;25019;42.626;23.380;2023-02-17T00:24:50;95337.88;;;0.57;74.16
39301;BME280;25019;42.626;23.380;2023-02-17T00:27:16;95345.25;;;0.62;74.48
39301;BME280;25019;42.626;23.380;2023-02-17T00:29:42;95348.00;;;0.60;74.77
39301;BME280;25019;42.626;23.380;2023-02-17T00:32:08;95335.59;;;0.54;75.27
39301;BME280;25019;42.626;23.380;2023-02-17T00:34:35;95269.91;;;0.16;74.67
39301;BME280;25019;42.626;23.380;2023-02-17T00:37:00;95332.50;;;0.58;75.93
39301;BME280;25019;42.626;23.380;2023-02-17T00:39:27;95324.00;;;0.56;76.32
39301;BME280;25019;42.626;23.380;2023-02-17T00:41:52;95330.69;;;0.59;76.56
39301;BME280;25019;42.626;23.380;2023-02-17T00:44:21;95268.59;;;0.20;76.28
39301;BME280;25019;42.626;23.380;2023-02-17T00:46:50;95315.81;;;0.51;76.97
39301;BME280;25019;42.626;23.380;2023-02-17T00:49:21;95307.19;;;0.51;77.47
39301;BME280;25019;42.626;23.380;2023-02-17T00:51:47;95311.91;;;0.55;76.94
39301;BME280;25019;42.626;23.380;2023-02-17T00:54:13;95240.16;;;0.08;77.66
39301;BME280;25019;42.626;23.380;2023-02-17T00:56:39;95274.31;;;0.23;77.95
39301;BME280;25019;42.626;23.380;2023-02-17T00:59:05;95325.94;;;0.54;78.63
39301;BME280;25019;42.626;23.380;2023-02-17T01:01:32;95318.59;;;0.50;79.39
39301;BME280;25019;42.626;23.380;2023-02-17T01:03:58;95294.59;;;0.38;79.58
39301;BME280;25019;42.626;23.380;2023-02-17T01:06:26;95316.13;;;0.48;79.02
39301;BME280;25019;42.626;23.380;2023-02-17T01:08:52;95319.25;;;0.43;79.89
39301;BME280;25019;42.626;23.380;2023-02-17T01:11:21;95319.25;;;0.43;79.08
39301;BME280;25019;42.626;23.380;2023-02-17T01:13:47;95243.25;;;-0.05;78.89
39301;BME280;25019;42.626;23.380;2023-02-17T01:16:22;95317.28;;;0.37;79.41
39301;BME280;25019;42.626;23.380;2023-02-17T01:18:48;95322.69;;;0.36;78.53
39301;BME280;25019;42.626;23.380;2023-02-17T01:21:23;95317.59;;;0.34;79.29
39301;BME280;25019;42.626;23.380;2023-02-17T01:23:50;95249.13;;;-0.11;79.45
39301;BME280;25019;42.626;23.380;2023-02-17T01:26:19;95314.84;;;0.36;79.63
39301;BME280;25019;42.626;23.380;2023-02-17T01:28:45;95263.69;;;0.08;79.22
39301;BME280;25019;42.626;23.380;2023-02-17T01:31:12;95261.72;;;0.02;79.62
39301;BME280;25019;42.626;23.380;2023-02-17T01:33:39;95298.97;;;0.37;79.32
39301;BME280;25019;42.626;23.380;2023-02-17T01:36:09;95304.22;;;0.37;79.58
39301;BME280;25019;42.626;23.380;2023-02-17T01:38:38;95228.09;;;-0.09;80.46
39301;BME280;25019;42.626;23.380;2023-02-17T01:41:04;95291.63;;;0.33;80.30
39301;BME280;25019;42.626;23.380;2023-02-17T01:43:30;95296.22;;;0.31;81.12
39301;BME280;25019;42.626;23.380;2023-02-17T01:45:58;95282.97;;;0.24;82.07
39301;BME280;25019;42.626;23.380;2023-02-17T01:48:30;95288.88;;;0.26;82.15
39301;BME280;25019;42.626;23.380;2023-02-17T01:53:40;95291.63;;;0.33;81.82
39301;BME280;25019;42.626;23.380;2023-02-17T01:56:09;95304.53;;;0.26;80.93
39301;BME280;25019;42.626;23.380;2023-02-17T01:58:39;95291.31;;;0.11;81.15
39301;BME280;25019;42.626;23.380;2023-02-17T02:01:07;95278.56;;;0.08;80.51
39301;BME280;25019;42.626;23.380;2023-02-17T02:03:36;95301.59;;;0.21;80.49
39301;BME280;25019;42.626;23.380;2023-02-17T02:06:07;95295.34;;;0.05;80.83
39301;BME280;25019;42.626;23.380;2023-02-17T02:08:55;95293.06;;;0.10;80.57
39301;BME280;25019;42.626;23.380;2023-02-17T02:11:21;95292.28;;;0.10;81.15
39301;BME280;25019;42.626;23.380;2023-02-17T02:13:48;95238.16;;;-0.23;80.58
39301;BME280;25019;42.626;23.380;2023-02-17T02:16:19;95294.56;;;0.13;81.02
39301;BME280;25019;42.626;23.380;2023-02-17T02:27:47;95292.91;;;0.04;81.95
39301;BME280;25019;42.626;23.380;2023-02-17T02:30:32;95286.06;;;0.03;81.61
39301;BME280;25019;42.626;23.380;2023-02-17T02:33:09;95290.63;;;0.01;82.46
39301;BME280;25019;42.626;23.380;2023-02-17T02:38:12;95294.69;;;0.03;81.69
39301;BME280;25019;42.626;23.380;2023-02-17T02:40:43;95286.84;;;0.03;81.77
39301;BME280;25019;42.626;23.380;2023-02-17T02:43:13;95196.50;;;-0.57;82.42
39301;BME280;25019;42.626;23.380;2023-02-17T02:45:39;95262.84;;;-0.17;82.61
39301;BME280;25019;42.626;23.380;2023-02-17T02:48:05;95289.63;;;0.02;83.41
39301;BME280;25019;42.626;23.380;2023-02-17T02:51:53;95291.94;;;0.05;84.03
39301;BME280;25019;42.626;23.380;2023-02-17T02:56:41;95291.31;;;0.11;84.19
39301;BME280;25019;42.626;23.380;2023-02-17T03:08:30;95298.97;;;0.12;84.65
39301;BME280;25019;42.626;23.380;2023-02-17T03:10:45;95292.56;;;-0.02;84.24
39301;BME280;25019;42.626;23.380;2023-02-17T03:13:12;95297.81;;;0.07;84.65
39301;BME280;25019;42.626;23.380;2023-02-17T03:15:37;95282.94;;;-0.01;84.20
39301;BME280;25019;42.626;23.380;2023-02-17T03:18:05;95293.72;;;0.04;84.32
39301;BME280;25019;42.626;23.380;2023-02-17T03:20:37;95257.41;;;-0.24;84.28
39301;BME280;25019;42.626;23.380;2023-02-17T03:23:04;95225.09;;;-0.39;84.57
39301;BME280;25019;42.626;23.380;2023-02-17T03:25:31;95265.75;;;-0.12;84.10
39301;BME280;25019;42.626;23.380;2023-02-17T03:27:56;95298.44;;;0.01;84.43
39301;BME280;25019;42.626;23.380;2023-02-17T03:30:23;95275.91;;;-0.09;84.22
39301;BME280;25019;42.626;23.380;2023-02-17T03:32:49;95296.63;;;0.01;84.70
39301;BME280;25019;42.626;23.380;2023-02-17T03:35:14;95212.19;;;-0.49;84.15
39301;BME280;25019;42.626;23.380;2023-02-17T03:37:40;95236.69;;;-0.42;84.29
39301;BME280;25019;42.626;23.380;2023-02-17T03:40:07;95303.84;;;-0.01;85.02
39301;BME280;25019;42.626;23.380;2023-02-17T03:42:33;95307.09;;;0.01;84.52
39301;BME280;25019;42.626;23.380;2023-02-17T03:44:59;95304.13;;;-0.12;84.17
39301;BME280;25019;42.626;23.380;2023-02-17T03:47:24;95280.59;;;-0.21;84.79
39301;BME280;25019;42.626;23.380;2023-02-17T03:49:50;95289.06;;;-0.35;85.55
39301;BME280;25019;42.626;23.380;2023-02-17T03:52:17;95285.66;;;-0.27;84.83
39301;BME280;25019;42.626;23.380;2023-02-17T03:54:42;95280.59;;;-0.29;85.38
39301;BME280;25019;42.626;23.380;2023-02-17T03:57:08;95268.63;;;-0.40;85.21
39301;BME280;25019;42.626;23.380;2023-02-17T03:59:34;95295.91;;;-0.26;85.11
39301;BME280;25019;42.626;23.380;2023-02-17T04:02:00;95222.56;;;-0.74;85.30
39301;BME280;25019;42.626;23.380;2023-02-17T04:04:25;95291.03;;;-0.29;85.81
39301;BME280;25019;42.626;23.380;2023-02-17T04:06:51;95227.28;;;-0.69;85.68
39301;BME280;25019;42.626;23.380;2023-02-17T04:09:17;95287.28;;;-0.26;85.22
39301;BME280;25019;42.626;23.380;2023-02-17T04:11:42;95220.91;;;-0.67;85.68
39301;BME280;25019;42.626;23.380;2023-02-17T04:14:08;95276.16;;;-0.37;85.97
39301;BME280;25019;42.626;23.380;2023-02-17T04:16:33;95227.13;;;-0.68;85.06
39301;BME280;25019;42.626;23.380;2023-02-17T04:18:59;95242.00;;;-0.52;85.08
39301;BME280;25019;42.626;23.380;2023-02-17T04:21:25;95294.31;;;-0.19;85.41
39301;BME280;25019;42.626;23.380;2023-02-17T04:23:51;95258.53;;;-0.43;85.79
39301;BME280;25019;42.626;23.380;2023-02-17T04:26:18;95290.59;;;-0.16;84.98
39301;BME280;25019;42.626;23.380;2023-02-17T04:28:44;95288.59;;;-0.22;85.44
39301;BME280;25019;42.626;23.380;2023-02-17T04:31:10;95244.47;;;-0.50;85.56
39301;BME280;25019;42.626;23.380;2023-02-17T04:33:35;95276.84;;;-0.26;85.46
39301;BME280;25019;42.626;23.380;2023-02-17T04:36:03;95297.75;;;-0.10;84.87
39301;BME280;25019;42.626;23.380;2023-02-17T04:38:29;95291.56;;;-0.09;84.70
39301;BME280;25019;42.626;23.380;2023-02-17T04:40:56;95275.06;;;-0.18;85.04
39301;BME280;25019;42.626;23.380;2023-02-17T04:43:23;95278.19;;;-0.14;84.63
39301;BME280;25019;42.626;23.380;2023-02-17T04:45:50;95274.56;;;-0.13;85.30
39301;BME280;25019;42.626;23.380;2023-02-17T04:48:16;95294.19;;;-0.01;85.25
39301;BME280;25019;42.626;23.380;2023-02-17T04:50:43;95290.78;;;-0.01;85.12
39301;BME280;25019;42.626;23.380;2023-02-17T04:53:08;95291.94;;;0.05;85.06
39301;BME280;25019;42.626;23.380;2023-02-17T04:55:34;95294.38;;;0.06;85.70
39301;BME280;25019;42.626;23.380;2023-02-17T04:58:00;95299.09;;;0.03;85.20
39301;BME280;25019;42.626;23.380;2023-02-17T05:00:25;95304.69;;;0.08;85.65
39301;BME280;25019;42.626;23.380;2023-02-17T05:02:51;95288.50;;;0.04;85.40
39301;BME280;25019;42.626;23.380;2023-02-17T05:05:17;95307.13;;;0.09;86.15
39301;BME280;25019;42.626;23.380;2023-02-17T05:07:46;95305.78;;;0.05;86.40
39301;BME280;25019;42.626;23.380;2023-02-17T05:10:13;95307.91;;;0.02;86.89
39301;BME280;25019;42.626;23.380;2023-02-17T05:12:39;95212.28;;;-0.67;86.49
39301;BME280;25019;42.626;23.380;2023-02-17T05:15:06;95314.59;;;-0.04;86.63
39301;BME280;25019;42.626;23.380;2023-02-17T05:17:32;95334.53;;;0.05;86.12
39301;BME280;25019;42.626;23.380;2023-02-17T05:19:58;95317.56;;;0.09;86.60
39301;BME280;25019;42.626;23.380;2023-02-17T05:22:24;95284.88;;;-0.11;86.35
39301;BME280;25019;42.626;23.380;2023-02-17T05:24:50;95312.81;;;0.05;86.20
39301;BME280;25019;42.626;23.380;2023-02-17T05:27:16;95333.25;;;0.09;86.05
39301;BME280;25019;42.626;23.380;2023-02-17T05:29:42;95297.72;;;-0.26;85.47
39301;BME280;25019;42.626;23.380;2023-02-17T05:32:07;95289.59;;;-0.23;85.34
39301;BME280;25019;42.626;23.380;2023-02-17T05:34:34;95272.44;;;-0.26;85.11
39301;BME280;25019;42.626;23.380;2023-02-17T05:37:00;95334.56;;;0.13;85.46
39301;BME280;25019;42.626;23.380;2023-02-17T05:39:26;95336.50;;;0.11;85.73
39301;BME280;25019;42.626;23.380;2023-02-17T05:41:52;95339.28;;;0.18;85.80
39301;BME280;25019;42.626;23.380;2023-02-17T05:44:17;95344.22;;;0.29;84.82
39301;BME280;25019;42.626;23.380;2023-02-17T05:46:43;95294.53;;;-0.04;85.31
39301;BME280;25019;42.626;23.380;2023-02-17T05:49:08;95357.94;;;0.32;84.79
39301;BME280;25019;42.626;23.380;2023-02-17T05:51:34;95348.63;;;0.29;84.58
39301;BME280;25019;42.626;23.380;2023-02-17T05:54:00;95359.28;;;0.36;84.49
39301;BME280;25019;42.626;23.380;2023-02-17T05:56:26;95356.16;;;0.40;84.67
39301;BME280;25019;42.626;23.380;2023-02-17T05:58:52;95357.31;;;0.46;84.36
39301;BME280;25019;42.626;23.380;2023-02-17T06:01:17;95352.88;;;0.38;84.69
39301;BME280;25019;42.626;23.380;2023-02-17T06:03:43;95355.69;;;0.53;84.44
39301;BME280;25019;42.626;23.380;2023-02-17T06:06:08;95358.63;;;0.58;83.40
39301;BME280;25019;42.626;23.380;2023-02-17T06:08:35;95358.31;;;0.70;84.18
39301;BME280;25019;42.626;23.380;2023-02-17T06:11:01;95366.00;;;0.80;83.75
39301;BME280;25019;42.626;23.380;2023-02-17T06:13:26;95306.66;;;0.47;83.30
39301;BME280;25019;42.626;23.380;2023-02-17T06:15:52;95247.19;;;0.16;83.20
39301;BME280;25019;42.626;23.380;2023-02-17T06:18:18;95306.69;;;0.64;82.78
39301;BME280;25019;42.626;23.380;2023-02-17T06:20:43;95350.31;;;1.04;82.75
39301;BME280;25019;42.626;23.380;2023-02-17T06:23:09;95338.03;;;1.05;81.78
39301;BME280;25019;42.626;23.380;2023-02-17T06:25:36;95350.25;;;1.21;81.04
39301;BME280;25019;42.626;23.380;2023-02-17T06:28:02;95280.03;;;0.77;81.55
39301;BME280;25019;42.626;23.380;2023-02-17T06:30:28;95354.38;;;1.15;81.64
39301;BME280;25019;42.626;23.380;2023-02-17T06:32:53;95358.13;;;1.21;81.57
39301;BME280;25019;42.626;23.380;2023-02-17T06:35:19;95370.03;;;1.32;81.59
39301;BME280;25019;42.626;23.380;2023-02-17T06:37:45;95362.84;;;1.34;81.05
39301;BME280;25019;42.626;23.380;2023-02-17T06:40:11;95373.81;;;1.38;80.64
39301;BME280;25019;42.626;23.380;2023-02-17T06:42:37;95360.53;;;1.47;81.76
39301;BME280;25019;42.626;23.380;2023-02-17T06:45:03;95373.69;;;1.71;80.47
39301;BME280;25019;42.626;23.380;2023-02-17T06:47:33;95364.50;;;1.83;78.27
39301;BME280;25019;42.626;23.380;2023-02-17T06:49:59;95242.00;;;1.14;77.95
39301;BME280;25019;42.626;23.380;2023-02-17T06:52:25;95337.56;;;1.98;77.97
39301;BME280;25019;42.626;23.380;2023-02-17T06:54:51;95380.81;;;2.33;76.41
39301;BME280;25019;42.626;23.380;2023-02-17T06:57:17;95386.41;;;2.30;74.97
39301;BME280;25019;42.626;23.380;2023-02-17T06:59:43;95378.84;;;2.35;75.44
39301;BME280;25019;42.626;23.380;2023-02-17T07:02:12;95390.31;;;2.34;75.26
39301;BME280;25019;42.626;23.380;2023-02-17T07:04:39;95391.09;;;2.43;75.10
39301;BME280;25019;42.626;23.380;2023-02-17T07:07:05;95389.13;;;2.45;75.12
39301;BME280;25019;42.626;23.380;2023-02-17T07:09:31;95377.44;;;2.48;75.73
39301;BME280;25019;42.626;23.380;2023-02-17T07:11:57;95380.50;;;2.60;76.73
39301;BME280;25019;42.626;23.380;2023-02-17T07:14:24;95388.44;;;2.75;75.47
39301;BME280;25019;42.626;23.380;2023-02-17T07:16:50;95386.56;;;2.83;74.91
39301;BME280;25019;42.626;23.380;2023-02-17T07:19:15;95388.66;;;2.88;74.71
39301;BME280;25019;42.626;23.380;2023-02-17T07:21:42;95389.47;;;2.89;73.72
39301;BME280;25019;42.626;23.380;2023-02-17T07:24:08;95392.84;;;2.97;74.21
39301;BME280;25019;42.626;23.380;2023-02-17T07:26:37;95396.41;;;3.05;73.40
39301;BME280;25019;42.626;23.380;2023-02-17T07:29:04;95379.22;;;3.02;73.60
39301;BME280;25019;42.626;23.380;2023-02-17T07:31:30;95379.31;;;3.09;73.55
39301;BME280;25019;42.626;23.380;2023-02-17T07:33:56;95403.88;;;3.16;73.12
39301;BME280;25019;42.626;23.380;2023-02-17T07:36:22;95391.09;;;3.13;73.68
39301;BME280;25019;42.626;23.380;2023-02-17T07:38:47;95357.25;;;2.80;73.70
39301;BME280;25019;42.626;23.380;2023-02-17T07:41:15;95321.41;;;2.72;74.07
39301;BME280;25019;42.626;23.380;2023-02-17T07:43:42;95405.72;;;3.07;74.02
39301;BME280;25019;42.626;23.380;2023-02-17T07:46:09;95408.47;;;3.14;75.02
39301;BME280;25019;42.626;23.380;2023-02-17T07:48:34;95344.13;;;2.80;74.54
39301;BME280;25019;42.626;23.380;2023-02-17T07:53:30;95336.34;;;2.87;75.07
39301;BME280;25019;42.626;23.380;2023-02-17T07:55:55;95401.03;;;3.41;74.45
39301;BME280;25019;42.626;23.380;2023-02-17T07:58:21;95391.66;;;3.23;75.25
39301;BME280;25019;42.626;23.380;2023-02-17T08:00:47;95374.44;;;3.21;74.65
39301;BME280;25019;42.626;23.380;2023-02-17T08:03:12;95391.31;;;3.41;74.87
39301;BME280;25019;42.626;23.380;2023-02-17T08:05:39;95397.44;;;3.57;74.50
39301;BME280;25019;42.626;23.380;2023-02-17T08:08:06;95399.78;;;3.67;74.15
39301;BME280;25019;42.626;23.380;2023-02-17T08:10:50;95396.97;;;3.68;74.68
39301;BME280;25019;42.626;23.380;2023-02-17T08:13:35;95379.13;;;3.64;74.13
39301;BME280;25019;42.626;23.380;2023-02-17T08:16:00;95403.22;;;3.82;74.88
39301;BME280;25019;42.626;23.380;2023-02-17T08:18:26;95389.44;;;3.80;73.49
39301;BME280;25019;42.626;23.380;2023-02-17T08:20:51;95399.44;;;4.00;73.28
39301;BME280;25019;42.626;23.380;2023-02-17T08:23:19;95401.06;;;4.16;72.12
39301;BME280;25019;42.626;23.380;2023-02-17T08:25:45;95332.81;;;3.93;71.51
39301;BME280;25019;42.626;23.380;2023-02-17T08:28:11;95398.75;;;4.43;70.79
39301;BME280;25019;42.626;23.380;2023-02-17T08:30:37;95345.19;;;4.29;70.27
39301;BME280;25019;42.626;23.380;2023-02-17T08:33:04;95405.56;;;4.74;69.69
39301;BME280;25019;42.626;23.380;2023-02-17T08:35:30;95395.97;;;4.88;68.62
39301;BME280;25019;42.626;23.380;2023-02-17T08:37:55;95381.78;;;4.89;66.89
39301;BME280;25019;42.626;23.380;2023-02-17T08:40:21;95384.84;;;5.14;66.95
39301;BME280;25019;42.626;23.380;2023-02-17T08:42:47;95374.38;;;5.21;66.86
39301;BME280;25019;42.626;23.380;2023-02-17T08:45:14;95379.00;;;5.40;67.09
39301;BME280;25019;42.626;23.380;2023-02-17T08:47:40;95389.25;;;5.57;65.29
39301;BME280;25019;42.626;23.380;2023-02-17T08:50:08;95389.09;;;5.65;64.76
39301;BME280;25019;42.626;23.380;2023-02-17T08:52:34;95373.09;;;5.67;63.00
39301;BME280;25019;42.626;23.380;2023-02-17T08:55:00;95386.16;;;5.82;62.43
39301;BME280;25019;42.626;23.380;2023-02-17T08:57:25;95391.13;;;5.98;62.00
39301;BME280;25019;42.626;23.380;2023-02-17T08:59:52;95388.16;;;6.08;60.88
39301;BME280;25019;42.626;23.380;2023-02-17T09:02:18;95383.13;;;6.20;60.71
39301;BME280;25019;42.626;23.380;2023-02-17T09:04:44;95388.28;;;6.35;59.61
39301;BME280;25019;42.626;23.380;2023-02-17T09:07:11;95390.16;;;6.48;59.71
39301;BME280;25019;42.626;23.380;2023-02-17T09:09:38;95387.34;;;6.63;58.83
39301;BME280;25019;42.626;23.380;2023-02-17T09:12:04;95361.34;;;6.53;58.86
39301;BME280;25019;42.626;23.380;2023-02-17T09:14:30;95388.22;;;6.84;58.51
39301;BME280;25019;42.626;23.380;2023-02-17T09:16:56;95375.63;;;6.86;58.57
39301;BME280;25019;42.626;23.380;2023-02-17T09:19:22;95379.09;;;7.00;58.04
39301;BME280;25019;42.626;23.380;2023-02-17T09:21:47;95379.91;;;7.14;57.83
39301;BME280;25019;42.626;23.380;2023-02-17T09:24:14;95367.31;;;7.16;56.73
39301;BME280;25019;42.626;23.380;2023-02-17T09:26:40;95376.69;;;7.32;56.40
39301;BME280;25019;42.626;23.380;2023-02-17T09:29:06;95360.81;;;7.32;55.98
39301;BME280;25019;42.626;23.380;2023-02-17T09:31:33;95367.72;;;7.60;55.97
39301;BME280;25019;42.626;23.380;2023-02-17T09:34:00;95363.22;;;7.67;55.09
39301;BME280;25019;42.626;23.380;2023-02-17T09:36:28;95347.94;;;7.69;54.49
39301;BME280;25019;42.626;23.380;2023-02-17T09:38:55;95359.31;;;7.90;54.32
39301;BME280;25019;42.626;23.380;2023-02-17T09:44:10;95365.28;;;8.24;52.34
39301;BME280;25019;42.626;23.380;2023-02-17T09:46:44;95360.44;;;8.21;51.61
39301;BME280;25019;42.626;23.380;2023-02-17T09:49:19;95333.63;;;8.10;51.53
39301;BME280;25019;42.626;23.380;2023-02-17T09:51:59;95343.25;;;8.37;51.10
39301;BME280;25019;42.626;23.380;2023-02-17T09:56:53;95345.47;;;8.53;50.42
39301;BME280;25019;42.626;23.380;2023-02-17T09:59:27;95342.34;;;8.63;50.14
39301;BME280;25019;42.626;23.380;2023-02-17T10:01:55;95262.91;;;8.24;49.91
39301;BME280;25019;42.626;23.380;2023-02-17T10:04:30;95348.09;;;8.92;48.66
39301;BME280;25019;42.626;23.380;2023-02-17T10:07:08;95341.22;;;9.10;48.50
39301;BME280;25019;42.626;23.380;2023-02-17T10:09:46;95347.66;;;9.21;48.78
39301;BME280;25019;42.626;23.380;2023-02-17T10:12:24;95264.22;;;8.79;48.26
39301;BME280;25019;42.626;23.380;2023-02-17T10:14:55;95328.34;;;9.39;47.97
39301;BME280;25019;42.626;23.380;2023-02-17T10:17:32;95335.97;;;9.54;48.10
39301;BME280;25019;42.626;23.380;2023-02-17T10:20:13;95318.09;;;9.68;46.81
39301;BME280;25019;42.626;23.380;2023-02-17T10:22:44;95269.03;;;9.58;42.90
39301;BME280;25019;42.626;23.380;2023-02-17T10:25:20;95299.38;;;10.00;40.28
39301;BME280;25019;42.626;23.380;2023-02-17T10:28:17;95317.09;;;10.37;37.55
39301;BME280;25019;42.626;23.380;2023-02-17T10:31:01;95306.78;;;10.47;36.58
39301;BME280;25019;42.626;23.380;2023-02-17T10:36:24;95297.88;;;10.72;35.12
39301;BME280;25019;42.626;23.380;2023-02-17T10:39:02;95295.09;;;10.78;34.64
39301;BME280;25019;42.626;23.380;2023-02-17T10:41:35;95290.63;;;10.91;35.20
39301;BME280;25019;42.626;23.380;2023-02-17T10:44:06;95267.28;;;10.81;35.01
39301;BME280;25019;42.626;23.380;2023-02-17T10:46:33;95277.03;;;10.99;34.52
39301;BME280;25019;42.626;23.380;2023-02-17T10:48:59;95243.13;;;10.83;34.65
39301;BME280;25019;42.626;23.380;2023-02-17T10:51:28;95238.28;;;10.79;34.82
39301;BME280;25019;42.626;23.380;2023-02-17T10:56:43;95279.13;;;11.21;34.81
39301;BME280;25019;42.626;23.380;2023-02-17T10:59:24;95279.69;;;11.23;34.88
39301;BME280;25019;42.626;23.380;2023-02-17T11:01:55;95265.47;;;11.29;34.47
39301;BME280;25019;42.626;23.380;2023-02-17T11:04:24;95263.50;;;11.36;34.51
39301;BME280;25019;42.626;23.380;2023-02-17T11:06:51;95246.19;;;11.22;34.68
39301;BME280;25019;42.626;23.380;2023-02-17T11:09:27;95275.06;;;11.30;34.43
39301;BME280;25019;42.626;23.380;2023-02-17T11:11:59;95260.84;;;11.24;34.00
39301;BME280;25019;42.626;23.380;2023-02-17T11:14:29;95241.44;;;11.24;34.01
39301;BME280;25019;42.626;23.380;2023-02-17T11:17:14;95267.78;;;11.37;34.74
39301;BME280;25019;42.626;23.380;2023-02-17T11:19:41;95260.06;;;11.36;34.66
39301;BME280;25019;42.626;23.380;2023-02-17T11:22:29;95205.13;;;11.06;34.41
39301;BME280;25019;42.626;23.380;2023-02-17T11:24:59;95239.94;;;11.28;34.90
39301;BME280;25019;42.626;23.380;2023-02-17T11:27:26;95245.59;;;11.32;34.96
39301;BME280;25019;42.626;23.380;2023-02-17T11:29:51;95252.06;;;11.48;34.90
39301;BME280;25019;42.626;23.380;2023-02-17T11:32:17;95226.28;;;11.36;35.62
39301;BME280;25019;42.626;23.380;2023-02-17T11:34:56;95250.44;;;11.59;35.59
39301;BME280;25019;42.626;23.380;2023-02-17T11:37:22;95247.06;;;11.63;34.58
39301;BME280;25019;42.626;23.380;2023-02-17T11:39:53;95238.50;;;11.61;34.54
39301;BME280;25019;42.626;23.380;2023-02-17T11:42:29;95244.84;;;11.72;34.52
39301;BME280;25019;42.626;23.380;2023-02-17T11:45:00;95200.13;;;11.45;34.37
39301;BME280;25019;42.626;23.380;2023-02-17T11:53:49;95236.63;;;11.86;35.08
39301;BME280;25019;42.626;23.380;2023-02-17T11:56:19;95233.94;;;11.86;35.78
39301;BME280;25019;42.626;23.380;2023-02-17T11:58:59;95227.91;;;11.90;35.40
39301;BME280;25019;42.626;23.380;2023-02-17T12:04:24;95227.22;;;11.95;35.40
39301;BME280;25019;42.626;23.380;2023-02-17T12:09:58;95214.84;;;12.01;36.07
39301;BME280;25019;42.626;23.380;2023-02-17T12:24:37;95206.44;;;12.21;35.35
39301;BME280;25019;42.626;23.380;2023-02-17T12:32:52;95189.00;;;12.30;35.91
39301;BME280;25019;42.626;23.380;2023-02-17T12:35:26;95179.19;;;12.31;35.04
39301;BME280;25019;42.626;23.380;2023-02-17T12:38:00;95183.09;;;12.28;35.80
39301;BME280;25019;42.626;23.380;2023-02-17T12:40:40;95163.56;;;12.22;35.73
39301;BME280;25019;42.626;23.380;2023-02-17T12:43:31;95158.09;;;12.29;35.63
39301;BME280;25019;42.626;23.380;2023-02-17T12:46:04;95096.34;;;11.86;35.96
39301;BME280;25019;42.626;23.380;2023-02-17T12:49:03;95167.97;;;12.46;35.75
39301;BME280;25019;42.626;23.380;2023-02-17T12:51:31;95162.75;;;12.51;36.23
39301;BME280;25019;42.626;23.380;2023-02-17T12:59:25;95145.28;;;12.60;35.91
39301;BME280;25019;42.626;23.380;2023-02-17T13:01:56;95156.50;;;12.79;35.30
39301;BME280;25019;42.626;23.380;2023-02-17T13:04:24;95155.28;;;12.87;35.56
39301;BME280;25019;42.626;23.380;2023-02-17T13:07:01;95102.06;;;12.58;35.24
39301;BME280;25019;42.626;23.380;2023-02-17T13:14:45;95164.19;;;12.93;35.07
39301;BME280;25019;42.626;23.380;2023-02-17T13:22:26;95155.84;;;12.89;33.96
39301;BME280;25019;42.626;23.380;2023-02-17T13:24:55;95161.75;;;12.91;34.34
39301;BME280;25019;42.626;23.380;2023-02-17T13:32:47;95150.94;;;13.20;33.42
39301;BME280;25019;42.626;23.380;2023-02-17T13:37:53;95149.66;;;13.23;33.37
39301;BME280;25019;42.626;23.380;2023-02-17T13:45:32;95149.78;;;13.33;32.73
39301;BME280;25019;42.626;23.380;2023-02-17T13:48:10;95148.50;;;13.36;32.98
39301;BME280;25019;42.626;23.380;2023-02-17T13:50:42;95146.81;;;13.29;32.99
39301;BME280;25019;42.626;23.380;2023-02-17T13:53:31;95140.66;;;13.29;32.79
39301;BME280;25019;42.626;23.380;2023-02-17T13:58:36;95146.13;;;13.39;32.20
39301;BME280;25019;42.626;23.380;2023-02-17T14:01:03;95131.03;;;13.45;31.48
39301;BME280;25019;42.626;23.380;2023-02-17T14:06:05;95142.41;;;13.40;31.61
39301;BME280;25019;42.626;23.380;2023-02-17T14:08:39;95090.16;;;13.00;31.33
39301;BME280;25019;42.626;23.380;2023-02-17T14:11:14;95143.22;;;13.18;31.42
39301;BME280;25019;42.626;23.380;2023-02-17T14:13:43;95133.91;;;13.21;31.40
39301;BME280;25019;42.626;23.380;2023-02-17T14:21:28;95073.31;;;12.77;29.26
39301;BME280;25019;42.626;23.380;2023-02-17T14:23:55;95137.88;;;13.18;29.30
39301;BME280;25019;42.626;23.380;2023-02-17T14:28:54;95121.09;;;13.01;29.90
39301;BME280;25019;42.626;23.380;2023-02-17T14:31:21;95152.66;;;13.09;30.52
39301;BME280;25019;42.626;23.380;2023-02-17T14:33:56;95154.22;;;13.05;31.08
39301;BME280;25019;42.626;23.380;2023-02-17T14:36:36;95151.16;;;12.96;31.04
39301;BME280;25019;42.626;23.380;2023-02-17T14:39:04;95145.09;;;12.84;31.82
39301;BME280;25019;42.626;23.380;2023-02-17T14:41:31;95153.66;;;12.86;32.17
39301;BME280;25019;42.626;23.380;2023-02-17T14:43:57;95152.13;;;12.90;32.46
39301;BME280;25019;42.626;23.380;2023-02-17T14:46:23;95022.53;;;12.10;32.63
39301;BME280;25019;42.626;23.380;2023-02-17T14:48:49;95151.09;;;12.91;32.92
39301;BME280;25019;42.626;23.380;2023-02-17T14:51:18;95150.44;;;12.84;32.99
39301;BME280;25019;42.626;23.380;2023-02-17T14:53:44;95046.41;;;12.05;33.40